createdAt,value
2018-12-02T00:01:25.145Z,100186.49
2018-12-02T00:03:52.178Z,100179.95
2018-12-02T00:06:19.052Z,100175.05
2018-12-02T00:08:46.059Z,100177.36
2018-12-02T00:11:12.954Z,100169.19
2018-12-02T00:16:13.535Z,100161.64
2018-12-02T00:18:40.443Z,100152.25
2018-12-02T00:21:07.350Z,100153.92
2018-12-02T00:23:34.283Z,100149.57
2018-12-02T00:26:01.207Z,100143.52
2018-12-02T00:28:28.124Z,100139.49
2018-12-02T00:30:55.038Z,100145.19
2018-12-02T00:33:21.958Z,100136.77
2018-12-02T00:35:48.890Z,100129.83
2018-12-02T00:38:15.827Z,100127.47
2018-12-02T00:40:42.763Z,100128.28
2018-12-02T00:43:09.659Z,100114.38
2018-12-02T00:45:40.162Z,100120.56
2018-12-02T00:48:08.008Z,100112.34
2018-12-02T00:50:34.958Z,100111.50
2018-12-02T00:53:01.919Z,100108.13
2018-12-02T00:55:30.208Z,100117.31
2018-12-02T00:57:57.170Z,100109.91
2018-12-02T01:00:24.082Z,100112.10
2018-12-02T01:02:51.093Z,100100.35
2018-12-02T01:05:19.025Z,100106.73
2018-12-02T01:07:45.984Z,100104.70
2018-12-02T01:10:18.745Z,100093.97
2018-12-02T01:12:46.290Z,100095.60
2018-12-02T01:15:14.494Z,100086.86
2018-12-02T01:17:41.404Z,100083.16
2018-12-02T01:20:10.694Z,100089.17
2018-12-02T01:22:37.640Z,100077.09
2018-12-02T01:25:05.491Z,100075.06
2018-12-02T01:27:32.433Z,100068.03
2018-12-02T01:29:59.347Z,100066.00
2018-12-02T01:32:26.258Z,100062.47
2018-12-02T01:34:53.178Z,100060.58
2018-12-02T01:37:20.084Z,100053.08
2018-12-02T01:39:46.995Z,100045.55
2018-12-02T01:42:13.914Z,100046.89
2018-12-02T01:44:40.850Z,100047.71
2018-12-02T01:47:07.754Z,100033.59
2018-12-02T01:49:34.668Z,100037.63
2018-12-02T01:52:01.598Z,100026.08
2018-12-02T01:54:28.495Z,100029.08
2018-12-02T01:56:55.967Z,100028.17
2018-12-02T01:59:23.271Z,100013.42
2018-12-02T02:01:50.202Z,100013.53
2018-12-02T02:04:17.096Z,100009.52
2018-12-02T02:06:44.001Z,100007.84
2018-12-02T02:09:10.905Z,100000.82
2018-12-02T02:11:37.856Z,99996.62
2018-12-02T02:14:04.955Z,99992.77
2018-12-02T02:16:31.873Z,99982.04
2018-12-02T02:18:58.803Z,99981.92
2018-12-02T02:21:25.714Z,99979.35
2018-12-02T02:23:52.622Z,99972.03
2018-12-02T02:26:19.531Z,99968.63
2018-12-02T02:28:46.427Z,99971.71
2018-12-02T02:31:13.349Z,99965.94
2018-12-02T02:33:40.248Z,99967.42
2018-12-02T02:36:13.907Z,99962.23
2018-12-02T02:38:40.801Z,99965.23
2018-12-02T02:41:07.702Z,99956.75
2018-12-02T02:43:34.620Z,99955.61
2018-12-02T02:46:01.532Z,99952.34
2018-12-02T02:48:28.444Z,99943.66
2018-12-02T02:50:55.342Z,99930.50
2018-12-02T02:53:22.267Z,99915.74
2018-12-02T02:55:49.164Z,99918.11
2018-12-02T02:58:16.091Z,99914.41
2018-12-02T03:00:42.998Z,99910.17
2018-12-02T03:03:09.894Z,99906.35
2018-12-02T03:05:36.779Z,99902.61
2018-12-02T03:08:04.275Z,99896.75
2018-12-02T03:10:31.164Z,99875.12
2018-12-02T03:12:58.074Z,99891.88
2018-12-02T03:15:24.969Z,99890.54
2018-12-02T03:17:51.888Z,99884.47
2018-12-02T03:20:19.619Z,99886.34
2018-12-02T03:22:48.430Z,99882.63
2018-12-02T03:25:17.201Z,99882.22
2018-12-02T03:27:44.123Z,99874.91
2018-12-02T03:30:13.060Z,99874.16
2018-12-02T03:32:40.096Z,99866.64
2018-12-02T03:35:08.358Z,99867.45
2018-12-02T03:37:35.259Z,99862.73
2018-12-02T03:40:02.883Z,99852.62
2018-12-02T03:42:29.803Z,99847.58
2018-12-02T03:44:56.691Z,99848.92
2018-12-02T03:47:23.605Z,99844.19
2018-12-02T03:49:50.527Z,99838.30
2018-12-02T03:52:17.536Z,99840.98
2018-12-02T03:54:44.447Z,99834.20
2018-12-02T03:57:11.367Z,99822.97
2018-12-02T03:59:38.261Z,99828.83
2018-12-02T04:02:05.188Z,99833.70
2018-12-02T04:04:32.081Z,99825.94
2018-12-02T04:06:59.012Z,99830.59
2018-12-02T04:09:25.922Z,99815.83
2018-12-02T04:11:52.844Z,99812.02
2018-12-02T04:14:19.814Z,99805.41
2018-12-02T04:16:46.723Z,99800.89
2018-12-02T04:19:13.636Z,99796.66
2018-12-02T04:21:45.279Z,99797.50
2018-12-02T04:24:12.182Z,99783.30
2018-12-02T04:26:39.088Z,99789.31
2018-12-02T04:29:06.005Z,99787.26
2018-12-02T04:31:32.900Z,99779.20
2018-12-02T04:33:59.788Z,99780.23
2018-12-02T04:36:26.702Z,99784.08
2018-12-02T04:38:53.627Z,99780.23
2018-12-02T04:41:20.547Z,99780.86
2018-12-02T04:43:47.483Z,99779.92
2018-12-02T04:46:14.379Z,99775.39
2018-12-02T04:48:41.292Z,99773.20
2018-12-02T04:51:08.184Z,99770.13
2018-12-02T04:53:35.094Z,99771.16
2018-12-02T04:56:01.997Z,99766.73
2018-12-02T04:58:28.904Z,99761.44
2018-12-02T05:00:55.808Z,99760.62
2018-12-02T05:03:22.711Z,99756.08
2018-12-02T05:05:49.608Z,99752.05
2018-12-02T05:08:23.264Z,99748.23
2018-12-02T05:10:50.150Z,99748.55
2018-12-02T05:13:17.051Z,99740.19
2018-12-02T05:15:43.991Z,99737.28
2018-12-02T05:18:10.878Z,99726.23
2018-12-02T05:20:37.809Z,99717.69
2018-12-02T05:23:04.968Z,99725.20
2018-12-02T05:25:31.910Z,99711.78
2018-12-02T05:27:58.816Z,99709.81
2018-12-02T05:30:25.730Z,99703.41
2018-12-02T05:32:53.165Z,99708.78
2018-12-02T05:35:20.129Z,99700.95
2018-12-02T05:37:47.048Z,99701.76
2018-12-02T05:40:14.877Z,99688.66
2018-12-02T05:42:41.814Z,99678.05
2018-12-02T05:45:09.819Z,99671.63
2018-12-02T05:47:36.754Z,99670.70
2018-12-02T05:50:08.403Z,99665.34
2018-12-02T05:52:35.306Z,99671.20
2018-12-02T05:55:02.228Z,99661.62
2018-12-02T05:57:29.147Z,99659.76
2018-12-02T05:59:56.054Z,99645.31
2018-12-02T06:02:22.963Z,99638.59
2018-12-02T06:04:49.875Z,99639.73
2018-12-02T06:07:16.803Z,99629.83
2018-12-02T06:09:43.704Z,99622.80
2018-12-02T06:12:10.611Z,99627.46
2018-12-02T06:14:37.556Z,99624.56
2018-12-02T06:19:38.663Z,99625.80
2018-12-02T06:22:05.648Z,99619.28
2018-12-02T06:24:32.572Z,99618.88
2018-12-02T06:26:59.483Z,99619.41
2018-12-02T06:29:26.416Z,99621.56
2018-12-02T06:31:53.367Z,99629.71
2018-12-02T06:34:20.275Z,99626.00
2018-12-02T06:36:47.193Z,99630.34
2018-12-02T06:39:14.099Z,99628.19
2018-12-02T06:41:41.056Z,99629.53
2018-12-02T06:44:07.987Z,99633.34
2018-12-02T06:46:34.911Z,99631.50
2018-12-02T06:49:01.802Z,99635.71
2018-12-02T06:51:28.722Z,99627.56
2018-12-02T06:53:55.639Z,99629.94
2018-12-02T06:56:24.559Z,99626.23
2018-12-02T06:59:00.952Z,99631.59
2018-12-02T07:01:33.203Z,99632.00
2018-12-02T07:04:11.813Z,99634.37
2018-12-02T07:06:38.719Z,99636.02
2018-12-02T07:09:07.126Z,99635.63
2018-12-02T07:11:34.060Z,99634.28
2018-12-02T07:14:07.803Z,99632.12
2018-12-02T07:16:34.718Z,99630.88
2018-12-02T07:19:01.890Z,99635.00
2018-12-02T07:21:29.033Z,99625.20
2018-12-02T07:23:55.766Z,99629.22
2018-12-02T07:26:22.694Z,99627.48
2018-12-02T07:28:49.624Z,99624.48
2018-12-02T07:31:16.523Z,99620.45
2018-12-02T07:33:43.424Z,99629.14
2018-12-02T07:36:10.338Z,99624.08
2018-12-02T07:38:51.127Z,99612.59
2018-12-02T07:41:18.044Z,99610.66
2018-12-02T07:43:44.954Z,99611.38
2018-12-02T07:46:11.867Z,99602.07
2018-12-02T07:48:38.801Z,99605.48
2018-12-02T07:51:05.703Z,99599.39
2018-12-02T07:53:32.607Z,99597.64
2018-12-02T07:55:59.505Z,99594.55
2018-12-02T07:58:26.418Z,99594.11
2018-12-02T08:00:53.317Z,99585.65
2018-12-02T08:03:20.223Z,99590.92
2018-12-02T08:05:47.115Z,99579.34
2018-12-02T08:08:14.027Z,99579.88
2018-12-02T08:10:40.931Z,99571.41
2018-12-02T08:13:07.846Z,99571.09
2018-12-02T08:15:34.771Z,99567.78
2018-12-02T08:18:01.716Z,99563.22
2018-12-02T08:20:28.649Z,99559.31
2018-12-02T08:22:55.568Z,99558.25
2018-12-02T08:25:22.492Z,99558.25
2018-12-02T08:27:49.400Z,99550.63
2018-12-02T08:30:17.698Z,99553.19
2018-12-02T08:32:44.609Z,99546.47
2018-12-02T08:35:12.707Z,99544.72
2018-12-02T08:37:40.059Z,99540.69
2018-12-02T08:40:10.302Z,99539.44
2018-12-02T08:42:37.208Z,99540.59
2018-12-02T08:45:06.288Z,99537.19
2018-12-02T08:47:33.213Z,99538.72
2018-12-02T08:50:00.218Z,99536.15
2018-12-02T08:52:27.118Z,99542.42
2018-12-02T08:54:54.070Z,99544.80
2018-12-02T08:57:21.014Z,99534.67
2018-12-02T08:59:47.964Z,99543.89
2018-12-02T09:02:14.899Z,99538.39
2018-12-02T09:04:41.811Z,99542.02
2018-12-02T09:07:08.720Z,99537.98
2018-12-02T09:09:35.638Z,99534.88
2018-12-02T09:12:02.572Z,99526.20
2018-12-02T09:14:29.481Z,99525.79
2018-12-02T09:16:56.383Z,99523.41
2018-12-02T09:19:23.286Z,99517.50
2018-12-02T09:21:50.186Z,99511.73
2018-12-02T09:24:17.102Z,99507.79
2018-12-02T09:26:44.017Z,99511.41
2018-12-02T09:29:10.948Z,99511.63
2018-12-02T09:31:37.852Z,99517.31
2018-12-02T09:34:04.934Z,99512.22
2018-12-02T09:36:31.943Z,99508.19
2018-12-02T09:38:58.826Z,99505.22
2018-12-02T09:41:25.754Z,99496.63
2018-12-02T09:43:52.659Z,99490.61
2018-12-02T09:46:19.591Z,99486.80
2018-12-02T09:48:46.486Z,99487.92
2018-12-02T09:51:13.394Z,99484.93
2018-12-02T09:53:40.294Z,99483.17
2018-12-02T09:56:07.251Z,99472.95
2018-12-02T09:58:34.154Z,99472.42
2018-12-02T10:01:01.102Z,99478.33
2018-12-02T10:03:28.035Z,99480.06
2018-12-02T10:05:54.952Z,99474.07
2018-12-02T10:08:21.871Z,99478.91
2018-12-02T10:10:48.809Z,99471.80
2018-12-02T10:13:18.304Z,99471.77
2018-12-02T10:15:45.474Z,99464.44
2018-12-02T10:18:12.490Z,99460.07
2018-12-02T10:20:39.423Z,99453.89
2018-12-02T10:23:06.678Z,99447.89
2018-12-02T10:25:33.584Z,99446.94
2018-12-02T10:28:00.490Z,99440.61
2018-12-02T10:30:27.391Z,99435.55
2018-12-02T10:32:56.102Z,99424.59
2018-12-02T10:35:23.009Z,99424.59
2018-12-02T10:37:50.514Z,99426.86
2018-12-02T10:40:18.572Z,99430.28
2018-12-02T10:42:45.853Z,99421.68
2018-12-02T10:45:13.906Z,99417.14
2018-12-02T10:47:41.284Z,99420.64
2018-12-02T10:50:10.612Z,99415.80
2018-12-02T10:52:37.617Z,99412.27
2018-12-02T10:55:08.783Z,99359.89
2018-12-02T10:57:37.303Z,99398.41
2018-12-02T11:00:07.211Z,99393.26
2018-12-02T11:02:34.152Z,99386.81
2018-12-02T11:05:01.046Z,99384.89
2018-12-02T11:07:27.947Z,99385.20
2018-12-02T11:09:56.207Z,99380.09
2018-12-02T11:12:23.123Z,99370.99
2018-12-02T11:14:51.229Z,99374.52
2018-12-02T11:17:18.130Z,99374.72
2018-12-02T11:19:45.032Z,99369.06
2018-12-02T11:22:13.410Z,99364.19
2018-12-02T11:24:40.903Z,99360.04
2018-12-02T11:27:07.826Z,99359.00
2018-12-02T11:29:36.589Z,99356.31
2018-12-02T11:32:03.727Z,99353.82
2018-12-02T11:34:32.980Z,99350.94
2018-12-02T11:37:00.049Z,99341.83
2018-12-02T11:42:00.827Z,99337.14
2018-12-02T11:44:27.718Z,99335.42
2018-12-02T11:46:54.840Z,99331.46
2018-12-02T11:49:21.754Z,99331.23
2018-12-02T11:51:48.689Z,99333.19
2018-12-02T11:54:16.184Z,99329.46
2018-12-02T11:56:43.116Z,99324.77
2018-12-02T11:59:10.091Z,99320.42
2018-12-02T12:01:39.292Z,99323.42
2018-12-02T12:04:06.216Z,99322.50
2018-12-02T12:06:33.104Z,99323.73
2018-12-02T12:09:00.725Z,99323.42
2018-12-02T12:11:28.356Z,99311.50
2018-12-02T12:13:55.840Z,99305.89
2018-12-02T12:16:23.615Z,99307.11
2018-12-02T12:18:52.484Z,99296.05
2018-12-02T12:21:20.432Z,99301.93
2018-12-02T12:23:47.603Z,99300.28
2018-12-02T12:26:14.487Z,99294.16
2018-12-02T12:28:41.405Z,99293.42
2018-12-02T12:31:08.975Z,99285.97
2018-12-02T12:33:36.995Z,99280.28
2018-12-02T12:36:04.196Z,99276.13
2018-12-02T12:38:31.251Z,99269.39
2018-12-02T12:40:58.162Z,99267.59
2018-12-02T12:43:28.643Z,99265.00
2018-12-02T12:45:55.851Z,99261.03
2018-12-02T12:48:22.751Z,99256.56
2018-12-02T12:50:49.671Z,99256.26
2018-12-02T12:53:16.586Z,99254.67
2018-12-02T12:55:43.491Z,99252.22
2018-12-02T12:58:11.338Z,99250.57
2018-12-02T13:00:38.300Z,99242.80
2018-12-02T13:03:05.943Z,99240.11
2018-12-02T13:05:32.846Z,99246.10
2018-12-02T13:07:59.762Z,99232.86
2018-12-02T13:10:26.663Z,99231.74
2018-12-02T13:12:53.575Z,99235.03
2018-12-02T13:15:21.290Z,99234.44
2018-12-02T13:17:56.643Z,99230.16
2018-12-02T13:20:24.802Z,99228.31
2018-12-02T13:22:51.709Z,99235.34
2018-12-02T13:25:18.635Z,99233.09
2018-12-02T13:27:45.798Z,99225.92
2018-12-02T13:30:13.643Z,99238.03
2018-12-02T13:32:40.568Z,99223.00
2018-12-02T13:35:08.266Z,99228.68
2018-12-02T13:37:35.151Z,99222.86
2018-12-02T13:40:02.178Z,99217.92
2018-12-02T13:42:29.112Z,99216.07
2018-12-02T13:44:56.040Z,99214.72
2018-12-02T13:47:22.959Z,99216.58
2018-12-02T13:49:49.850Z,99215.59
2018-12-02T13:52:16.808Z,99216.20
2018-12-02T13:54:43.711Z,99211.72
2018-12-02T13:57:10.611Z,99215.16
2018-12-02T13:59:37.524Z,99208.20
2018-12-02T14:02:04.722Z,99206.85
2018-12-02T14:04:31.626Z,99200.13
2018-12-02T14:06:58.520Z,99209.54
2018-12-02T14:09:25.610Z,99203.95
2018-12-02T14:11:52.590Z,99199.38
2018-12-02T14:14:19.506Z,99202.08
2018-12-02T14:16:54.713Z,99197.23
2018-12-02T14:19:21.651Z,99196.48
2018-12-02T14:21:48.579Z,99196.25
2018-12-02T14:24:15.498Z,99195.65
2018-12-02T14:26:43.590Z,99203.34
2018-12-02T14:29:12.859Z,99198.20
2018-12-02T14:31:42.057Z,99199.23
2018-12-02T14:34:08.991Z,99197.36
2018-12-02T14:36:35.902Z,99194.91
2018-12-02T14:39:04.399Z,99200.34
2018-12-02T14:41:31.304Z,99198.50
2018-12-02T14:43:58.212Z,99199.00
2018-12-02T14:46:25.130Z,99206.03
2018-12-02T14:48:52.155Z,99199.61
2018-12-02T14:51:19.068Z,99202.19
2018-12-02T14:53:46.007Z,99203.83
2018-12-02T14:56:12.947Z,99196.86
2018-12-02T14:58:39.845Z,99193.37
2018-12-02T15:01:06.742Z,99197.53
2018-12-02T15:03:33.683Z,99190.80
2018-12-02T15:06:00.604Z,99191.41
2018-12-02T15:08:27.490Z,99195.44
2018-12-02T15:10:54.411Z,99189.02
2018-12-02T15:13:21.295Z,99196.34
2018-12-02T15:15:48.234Z,99198.59
2018-12-02T15:18:15.183Z,99192.42
2018-12-02T15:20:42.088Z,99193.03
2018-12-02T15:23:09.018Z,99193.13
2018-12-02T15:25:35.954Z,99195.27
2018-12-02T15:28:02.874Z,99198.98
2018-12-02T15:30:29.798Z,99197.88
2018-12-02T15:32:56.686Z,99196.69
2018-12-02T15:35:23.635Z,99193.45
2018-12-02T15:37:50.579Z,99195.40
2018-12-02T15:40:17.668Z,99197.70
2018-12-02T15:42:51.777Z,99197.76
2018-12-02T15:45:19.371Z,99197.31
2018-12-02T15:47:46.285Z,99201.20
2018-12-02T15:50:20.356Z,99204.78
2018-12-02T15:52:47.352Z,99206.20
2018-12-02T15:55:16.683Z,99209.19
2018-12-02T15:57:43.600Z,99204.01
2018-12-02T16:00:18.774Z,99206.91
2018-12-02T16:02:45.686Z,99204.66
2018-12-02T16:05:12.601Z,99204.66
2018-12-02T16:07:39.516Z,99209.30
2018-12-02T16:10:08.294Z,99216.23
2018-12-02T16:12:35.193Z,99218.63
2018-12-02T16:15:02.145Z,99217.58
2018-12-02T16:17:29.050Z,99217.69
2018-12-02T16:19:55.959Z,99223.67
2018-12-02T16:22:22.875Z,99223.67
2018-12-02T16:24:50.286Z,99225.77
2018-12-02T16:27:17.233Z,99222.33
2018-12-02T16:29:44.179Z,99224.86
2018-12-02T16:32:11.105Z,99226.51
2018-12-02T16:34:37.998Z,99226.27
2018-12-02T16:37:05.203Z,99237.70
2018-12-02T16:39:32.129Z,99233.52
2018-12-02T16:41:59.027Z,99234.11
2018-12-02T16:44:25.925Z,99236.75
2018-12-02T16:46:52.837Z,99238.91
2018-12-02T16:49:19.750Z,99246.48
2018-12-02T16:51:46.662Z,99250.47
2018-12-02T16:54:13.583Z,99257.27
2018-12-02T16:56:40.510Z,99258.07
2018-12-02T16:59:16.471Z,99263.16
2018-12-02T17:01:45.571Z,99256.82
2018-12-02T17:04:12.522Z,99261.55
2018-12-02T17:06:39.451Z,99268.38
2018-12-02T17:09:10.912Z,99261.55
2018-12-02T17:11:37.990Z,99271.92
2018-12-02T17:14:05.706Z,99278.66
2018-12-02T17:16:32.606Z,99277.16
2018-12-02T17:18:59.519Z,99285.88
2018-12-02T17:21:26.418Z,99275.00
2018-12-02T17:23:53.327Z,99284.37
2018-12-02T17:26:20.233Z,99278.74
2018-12-02T17:28:47.188Z,99287.98
2018-12-02T17:31:16.618Z,99287.15
2018-12-02T17:33:43.530Z,99284.39
2018-12-02T17:36:10.423Z,99290.68
2018-12-02T17:38:37.363Z,99288.13
2018-12-02T17:41:06.752Z,99294.63
2018-12-02T17:43:33.687Z,99292.55
2018-12-02T17:46:00.591Z,99301.00
2018-12-02T17:48:27.500Z,99295.02
2018-12-02T17:50:54.411Z,99300.64
2018-12-02T17:53:21.348Z,99293.37
2018-12-02T17:55:48.251Z,99298.02
2018-12-02T17:58:15.146Z,99304.89
2018-12-02T18:00:42.077Z,99308.20
2018-12-02T18:03:10.994Z,99312.07
2018-12-02T18:05:40.432Z,99309.38
2018-12-02T18:08:07.368Z,99319.70
2018-12-02T18:10:34.251Z,99317.69
2018-12-02T18:13:01.964Z,99320.32
2018-12-02T18:15:28.892Z,99318.00
2018-12-02T18:17:55.874Z,99319.28
2018-12-02T18:20:22.772Z,99329.20
2018-12-02T18:22:49.916Z,99331.30
2018-12-02T18:25:17.731Z,99331.59
2018-12-02T18:27:44.921Z,99339.91
2018-12-02T18:30:15.912Z,99343.04
2018-12-02T18:32:43.096Z,99341.77
2018-12-02T18:35:20.284Z,99340.52
2018-12-02T18:37:47.436Z,99342.91
2018-12-02T18:40:14.310Z,99338.87
2018-12-02T18:42:41.207Z,99344.45
2018-12-02T18:45:08.599Z,99341.25
2018-12-02T18:47:35.763Z,99344.02
2018-12-02T18:50:02.791Z,99346.94
2018-12-02T18:52:29.719Z,99349.03
2018-12-02T18:54:56.627Z,99354.41
2018-12-02T18:57:23.611Z,99350.91
2018-12-02T18:59:50.561Z,99353.37
2018-12-02T19:02:17.466Z,99353.73
2018-12-02T19:04:44.400Z,99356.67
2018-12-02T19:07:11.315Z,99354.11
2018-12-02T19:09:38.250Z,99351.28
2018-12-02T19:12:05.484Z,99353.06
2018-12-02T19:14:32.455Z,99352.77
2018-12-02T19:16:59.360Z,99354.65
2018-12-02T19:19:26.300Z,99360.03
2018-12-02T19:21:53.222Z,99357.55
2018-12-02T19:24:20.118Z,99362.63
2018-12-02T19:26:47.011Z,99361.89
2018-12-02T19:29:13.935Z,99359.50
2018-12-02T19:31:40.859Z,99358.45
2018-12-02T19:34:08.016Z,99361.45
2018-12-02T19:36:39.057Z,99357.55
2018-12-02T19:39:09.194Z,99357.41
2018-12-02T19:41:36.102Z,99354.65
2018-12-02T19:44:02.999Z,99349.77
2018-12-02T19:46:29.903Z,99355.63
2018-12-02T19:48:56.826Z,99355.69
2018-12-02T19:51:23.746Z,99357.41
2018-12-02T19:53:50.657Z,99357.11
2018-12-02T19:56:17.586Z,99361.45
2018-12-02T19:58:44.495Z,99360.70
2018-12-02T20:01:11.406Z,99358.75
2018-12-02T20:03:38.302Z,99359.05
2018-12-02T20:06:05.242Z,99361.45
2018-12-02T20:08:32.168Z,99361.37
2018-12-02T20:10:59.096Z,99372.28
2018-12-02T20:13:26.018Z,99370.94
2018-12-02T20:15:58.695Z,99367.64
2018-12-02T20:18:25.913Z,99363.40
2018-12-02T20:20:55.516Z,99366.30
2018-12-02T20:23:28.920Z,99365.72
2018-12-02T20:25:59.054Z,99362.26
2018-12-02T20:28:27.975Z,99364.58
2018-12-02T20:30:54.906Z,99369.25
2018-12-02T20:33:21.811Z,99364.37
2018-12-02T20:35:48.718Z,99356.95
2018-12-02T20:38:15.661Z,99367.80
2018-12-02T20:40:42.632Z,99365.34
2018-12-02T20:43:09.568Z,99364.74
2018-12-02T20:45:36.499Z,99362.35
2018-12-02T20:48:03.450Z,99368.04
2018-12-02T20:50:30.343Z,99363.70
2018-12-02T20:52:57.270Z,99366.39
2018-12-02T20:55:25.445Z,99366.63
2018-12-02T20:57:54.110Z,99362.86
2018-12-02T21:00:21.819Z,99364.74
2018-12-02T21:02:51.498Z,99364.50
2018-12-02T21:05:21.698Z,99366.63
2018-12-02T21:07:48.624Z,99363.16
2018-12-02T21:10:15.562Z,99364.44
2018-12-02T21:12:42.486Z,99355.25
2018-12-02T21:15:11.906Z,99355.86
2018-12-02T21:17:38.818Z,99353.43
2018-12-02T21:20:08.194Z,99352.92
2018-12-02T21:22:35.132Z,99351.58
2018-12-02T21:25:02.082Z,99352.09
2018-12-02T21:27:28.991Z,99343.73
2018-12-02T21:29:55.922Z,99345.95
2018-12-02T21:32:22.830Z,99343.80
2018-12-02T21:34:49.745Z,99351.44
2018-12-02T21:37:16.653Z,99349.79
2018-12-02T21:39:43.563Z,99347.61
2018-12-02T21:42:10.469Z,99350.84
2018-12-02T21:44:37.370Z,99350.00
2018-12-02T21:47:04.311Z,99347.16
2018-12-02T21:49:31.199Z,99349.32
2018-12-02T21:51:58.106Z,99346.42
2018-12-02T21:54:25.022Z,99348.88
2018-12-02T21:56:51.951Z,99347.69
2018-12-02T21:59:18.843Z,99351.05
2018-12-02T22:01:45.778Z,99341.84
2018-12-02T22:04:12.699Z,99351.13
2018-12-02T22:06:39.574Z,99340.48
2018-12-02T22:09:07.266Z,99345.72
2018-12-02T22:11:34.162Z,99342.41
2018-12-02T22:14:01.057Z,99342.55
2018-12-02T22:16:28.092Z,99343.16
2018-12-02T22:18:55.034Z,99346.63
2018-12-02T22:21:21.923Z,99345.43
2018-12-02T22:23:48.838Z,99357.31
2018-12-02T22:26:15.755Z,99351.77
2018-12-02T22:28:42.669Z,99353.78
2018-12-02T22:31:09.567Z,99358.18
2018-12-02T22:33:36.474Z,99344.44
2018-12-02T22:36:03.382Z,99350.38
2018-12-02T22:38:30.287Z,99347.05
2018-12-02T22:40:57.178Z,99352.80
2018-12-02T22:43:24.119Z,99346.44
2018-12-02T22:45:51.046Z,99340.25
2018-12-02T22:48:17.947Z,99341.15
2018-12-02T22:50:44.847Z,99335.30
2018-12-02T22:53:11.791Z,99335.59
2018-12-02T22:55:38.698Z,99336.48
2018-12-02T22:58:06.011Z,99343.80
2018-12-02T23:00:38.683Z,99338.83
2018-12-02T23:03:11.695Z,99345.87
2018-12-02T23:05:39.369Z,99342.12
2018-12-02T23:08:06.391Z,99338.37
2018-12-02T23:10:33.315Z,99343.58
2018-12-02T23:13:00.242Z,99344.41
2018-12-02T23:15:27.168Z,99345.98
2018-12-02T23:17:54.118Z,99343.66
2018-12-02T23:20:21.091Z,99341.26
2018-12-02T23:22:48.014Z,99341.55
2018-12-02T23:25:15.474Z,99334.51
2018-12-02T23:27:42.504Z,99335.16
2018-12-02T23:30:25.853Z,99330.80
2018-12-02T23:32:52.762Z,99334.61
2018-12-02T23:35:19.818Z,99333.51
2018-12-02T23:37:47.432Z,99329.45
2018-12-02T23:40:18.479Z,99344.59
2018-12-02T23:42:45.505Z,99331.32
2018-12-02T23:45:13.219Z,99333.80
2018-12-02T23:47:40.219Z,99331.40
2018-12-02T23:50:11.215Z,99332.45
2018-12-02T23:52:38.106Z,99331.70
2018-12-02T23:55:07.176Z,99326.30
2018-12-02T23:57:35.445Z,99329.30
